sensor_id;sensor_type;location;lat;lon;timestamp;P1;durP1;ratioP1;P2;durP2;ratioP2
33826;SDS011;20128;45.582;5.298;2024-02-15T00:01:30;33.22;;;12.35;;
33826;SDS011;20128;45.582;5.298;2024-02-15T00:03:56;20.60;;;9.15;;
33826;SDS011;20128;45.582;5.298;2024-02-15T00:06:22;13.32;;;6.47;;
33826;SDS011;20128;45.582;5.298;2024-02-15T00:08:48;14.15;;;6.07;;
33826;SDS011;20128;45.582;5.298;2024-02-15T00:11:17;12.55;;;5.95;;
33826;SDS011;20128;45.582;5.298;2024-02-15T00:13:43;14.60;;;6.05;;
33826;SDS011;20128;45.582;5.298;2024-02-15T00:16:12;13.55;;;6.47;;
33826;SDS011;20128;45.582;5.298;2024-02-15T00:18:41;13.82;;;5.60;;
33826;SDS011;20128;45.582;5.298;2024-02-15T00:21:07;11.52;;;6.05;;
33826;SDS011;20128;45.582;5.298;2024-02-15T00:23:32;13.30;;;5.47;;
33826;SDS011;20128;45.582;5.298;2024-02-15T00:25:58;13.90;;;5.05;;
33826;SDS011;20128;45.582;5.298;2024-02-15T00:28:24;11.93;;;5.40;;
33826;SDS011;20128;45.582;5.298;2024-02-15T00:30:51;12.73;;;4.55;;
33826;SDS011;20128;45.582;5.298;2024-02-15T00:33:18;14.45;;;5.28;;
33826;SDS011;20128;45.582;5.298;2024-02-15T00:35:43;13.93;;;5.13;;
33826;SDS011;20128;45.582;5.298;2024-02-15T00:38:09;11.98;;;4.75;;
33826;SDS011;20128;45.582;5.298;2024-02-15T00:40:35;11.90;;;4.45;;
33826;SDS011;20128;45.582;5.298;2024-02-15T00:43:00;11.20;;;4.25;;
33826;SDS011;20128;45.582;5.298;2024-02-15T00:45:26;12.18;;;4.95;;
33826;SDS011;20128;45.582;5.298;2024-02-15T00:47:52;12.52;;;5.80;;
33826;SDS011;20128;45.582;5.298;2024-02-15T00:50:19;14.60;;;7.03;;
33826;SDS011;20128;45.582;5.298;2024-02-15T00:52:44;17.73;;;6.68;;
33826;SDS011;20128;45.582;5.298;2024-02-15T00:55:10;13.07;;;6.40;;
33826;SDS011;20128;45.582;5.298;2024-02-15T00:57:36;13.40;;;6.35;;
33826;SDS011;20128;45.582;5.298;2024-02-15T01:00:02;13.48;;;6.97;;
33826;SDS011;20128;45.582;5.298;2024-02-15T01:02:28;14.48;;;6.70;;
33826;SDS011;20128;45.582;5.298;2024-02-15T01:04:54;15.27;;;6.72;;
33826;SDS011;20128;45.582;5.298;2024-02-15T01:07:22;13.15;;;6.20;;
33826;SDS011;20128;45.582;5.298;2024-02-15T01:09:52;12.50;;;6.03;;
33826;SDS011;20128;45.582;5.298;2024-02-15T01:12:18;18.17;;;6.50;;
33826;SDS011;20128;45.582;5.298;2024-02-15T01:14:44;10.65;;;5.75;;
33826;SDS011;20128;45.582;5.298;2024-02-15T01:17:09;13.95;;;7.18;;
33826;SDS011;20128;45.582;5.298;2024-02-15T01:19:35;11.60;;;5.68;;
33826;SDS011;20128;45.582;5.298;2024-02-15T01:22:00;15.10;;;6.63;;
33826;SDS011;20128;45.582;5.298;2024-02-15T01:24:27;11.65;;;5.65;;
33826;SDS011;20128;45.582;5.298;2024-02-15T01:26:53;14.40;;;5.35;;
33826;SDS011;20128;45.582;5.298;2024-02-15T01:29:19;11.98;;;5.97;;
33826;SDS011;20128;45.582;5.298;2024-02-15T01:31:45;11.77;;;5.63;;
33826;SDS011;20128;45.582;5.298;2024-02-15T01:34:11;15.10;;;6.68;;
33826;SDS011;20128;45.582;5.298;2024-02-15T01:36:36;11.50;;;6.65;;
33826;SDS011;20128;45.582;5.298;2024-02-15T01:39:02;11.52;;;5.13;;
33826;SDS011;20128;45.582;5.298;2024-02-15T01:41:28;13.15;;;5.35;;
33826;SDS011;20128;45.582;5.298;2024-02-15T01:43:53;14.68;;;5.95;;
33826;SDS011;20128;45.582;5.298;2024-02-15T01:46:19;12.88;;;5.93;;
33826;SDS011;20128;45.582;5.298;2024-02-15T01:48:46;11.82;;;5.05;;
33826;SDS011;20128;45.582;5.298;2024-02-15T01:51:12;14.10;;;5.47;;
33826;SDS011;20128;45.582;5.298;2024-02-15T01:53:41;10.55;;;5.63;;
33826;SDS011;20128;45.582;5.298;2024-02-15T01:56:08;15.30;;;5.95;;
33826;SDS011;20128;45.582;5.298;2024-02-15T01:58:34;10.65;;;5.38;;
33826;SDS011;20128;45.582;5.298;2024-02-15T02:01:00;18.67;;;5.07;;
33826;SDS011;20128;45.582;5.298;2024-02-15T02:03:26;10.55;;;4.72;;
33826;SDS011;20128;45.582;5.298;2024-02-15T02:05:52;10.65;;;4.90;;
33826;SDS011;20128;45.582;5.298;2024-02-15T02:08:18;11.30;;;4.40;;
33826;SDS011;20128;45.582;5.298;2024-02-15T02:10:44;10.63;;;4.38;;
33826;SDS011;20128;45.582;5.298;2024-02-15T02:13:10;10.23;;;4.10;;
33826;SDS011;20128;45.582;5.298;2024-02-15T02:15:37;8.07;;;4.47;;
33826;SDS011;20128;45.582;5.298;2024-02-15T02:18:02;9.10;;;4.45;;
33826;SDS011;20128;45.582;5.298;2024-02-15T02:20:33;9.38;;;4.43;;
33826;SDS011;20128;45.582;5.298;2024-02-15T02:23:03;8.80;;;4.25;;
33826;SDS011;20128;45.582;5.298;2024-02-15T02:25:32;8.40;;;4.50;;
33826;SDS011;20128;45.582;5.298;2024-02-15T02:27:59;12.30;;;4.75;;
33826;SDS011;20128;45.582;5.298;2024-02-15T02:30:25;11.10;;;4.70;;
33826;SDS011;20128;45.582;5.298;2024-02-15T02:32:54;9.38;;;4.95;;
33826;SDS011;20128;45.582;5.298;2024-02-15T02:35:21;9.93;;;4.47;;
33826;SDS011;20128;45.582;5.298;2024-02-15T02:37:48;7.80;;;4.22;;
33826;SDS011;20128;45.582;5.298;2024-02-15T02:40:14;9.38;;;4.70;;
33826;SDS011;20128;45.582;5.298;2024-02-15T02:42:46;10.98;;;5.00;;
33826;SDS011;20128;45.582;5.298;2024-02-15T02:45:21;14.02;;;4.80;;
33826;SDS011;20128;45.582;5.298;2024-02-15T02:47:51;9.60;;;4.20;;
33826;SDS011;20128;45.582;5.298;2024-02-15T02:50:17;10.23;;;4.22;;
33826;SDS011;20128;45.582;5.298;2024-02-15T02:52:43;10.60;;;5.07;;
33826;SDS011;20128;45.582;5.298;2024-02-15T02:55:09;16.00;;;4.45;;
33826;SDS011;20128;45.582;5.298;2024-02-15T02:57:36;12.50;;;4.45;;
33826;SDS011;20128;45.582;5.298;2024-02-15T03:00:06;7.70;;;4.35;;
33826;SDS011;20128;45.582;5.298;2024-02-15T03:02:36;10.93;;;5.13;;
33826;SDS011;20128;45.582;5.298;2024-02-15T03:05:05;12.77;;;4.10;;
33826;SDS011;20128;45.582;5.298;2024-02-15T03:07:33;9.70;;;4.97;;
33826;SDS011;20128;45.582;5.298;2024-02-15T03:09:59;13.43;;;4.75;;
33826;SDS011;20128;45.582;5.298;2024-02-15T03:12:29;14.75;;;4.70;;
33826;SDS011;20128;45.582;5.298;2024-02-15T03:14:56;12.50;;;5.95;;
33826;SDS011;20128;45.582;5.298;2024-02-15T03:17:24;12.65;;;4.95;;
33826;SDS011;20128;45.582;5.298;2024-02-15T03:19:51;9.60;;;5.47;;
33826;SDS011;20128;45.582;5.298;2024-02-15T03:22:16;10.93;;;4.88;;
33826;SDS011;20128;45.582;5.298;2024-02-15T03:24:42;10.75;;;4.93;;
33826;SDS011;20128;45.582;5.298;2024-02-15T03:27:08;14.35;;;5.40;;
33826;SDS011;20128;45.582;5.298;2024-02-15T03:29:37;10.52;;;5.10;;
33826;SDS011;20128;45.582;5.298;2024-02-15T03:32:03;11.82;;;5.28;;
33826;SDS011;20128;45.582;5.298;2024-02-15T03:34:30;10.98;;;5.45;;
33826;SDS011;20128;45.582;5.298;2024-02-15T03:36:56;12.32;;;5.35;;
33826;SDS011;20128;45.582;5.298;2024-02-15T03:39:22;13.00;;;5.18;;
33826;SDS011;20128;45.582;5.298;2024-02-15T03:41:48;12.70;;;5.43;;
33826;SDS011;20128;45.582;5.298;2024-02-15T03:44:15;16.95;;;6.15;;
33826;SDS011;20128;45.582;5.298;2024-02-15T03:46:43;11.75;;;5.38;;
33826;SDS011;20128;45.582;5.298;2024-02-15T03:49:15;10.30;;;5.93;;
33826;SDS011;20128;45.582;5.298;2024-02-15T03:51:45;15.88;;;5.70;;
33826;SDS011;20128;45.582;5.298;2024-02-15T03:54:13;13.63;;;6.25;;
33826;SDS011;20128;45.582;5.298;2024-02-15T03:56:48;13.60;;;5.95;;
33826;SDS011;20128;45.582;5.298;2024-02-15T03:59:20;10.93;;;5.63;;
33826;SDS011;20128;45.582;5.298;2024-02-15T04:01:51;16.20;;;7.55;;
33826;SDS011;20128;45.582;5.298;2024-02-15T04:04:20;13.68;;;5.97;;
33826;SDS011;20128;45.582;5.298;2024-02-15T04:06:49;11.88;;;5.97;;
33826;SDS011;20128;45.582;5.298;2024-02-15T04:09:16;12.93;;;6.03;;
33826;SDS011;20128;45.582;5.298;2024-02-15T04:11:43;16.40;;;6.00;;
33826;SDS011;20128;45.582;5.298;2024-02-15T04:14:09;15.38;;;6.43;;
33826;SDS011;20128;45.582;5.298;2024-02-15T04:16:35;20.10;;;6.57;;
33826;SDS011;20128;45.582;5.298;2024-02-15T04:19:01;12.32;;;5.80;;
33826;SDS011;20128;45.582;5.298;2024-02-15T04:21:28;16.55;;;5.90;;
33826;SDS011;20128;45.582;5.298;2024-02-15T04:23:53;16.08;;;6.65;;
33826;SDS011;20128;45.582;5.298;2024-02-15T04:26:19;13.05;;;5.85;;
33826;SDS011;20128;45.582;5.298;2024-02-15T04:28:45;15.40;;;6.40;;
33826;SDS011;20128;45.582;5.298;2024-02-15T04:31:17;14.60;;;6.13;;
33826;SDS011;20128;45.582;5.298;2024-02-15T04:33:43;13.95;;;6.35;;
33826;SDS011;20128;45.582;5.298;2024-02-15T04:36:08;14.00;;;6.10;;
33826;SDS011;20128;45.582;5.298;2024-02-15T04:38:34;11.98;;;6.32;;
33826;SDS011;20128;45.582;5.298;2024-02-15T04:41:03;11.68;;;5.90;;
33826;SDS011;20128;45.582;5.298;2024-02-15T04:43:34;16.63;;;6.45;;
33826;SDS011;20128;45.582;5.298;2024-02-15T04:46:02;17.23;;;6.03;;
33826;SDS011;20128;45.582;5.298;2024-02-15T04:48:32;16.98;;;5.38;;
33826;SDS011;20128;45.582;5.298;2024-02-15T04:50:59;15.27;;;5.53;;
33826;SDS011;20128;45.582;5.298;2024-02-15T04:53:26;11.35;;;5.65;;
33826;SDS011;20128;45.582;5.298;2024-02-15T04:55:54;17.90;;;5.40;;
33826;SDS011;20128;45.582;5.298;2024-02-15T04:58:20;17.60;;;5.95;;
33826;SDS011;20128;45.582;5.298;2024-02-15T05:00:46;15.02;;;5.10;;
33826;SDS011;20128;45.582;5.298;2024-02-15T05:03:13;11.05;;;5.38;;
33826;SDS011;20128;45.582;5.298;2024-02-15T05:05:39;15.98;;;5.65;;
33826;SDS011;20128;45.582;5.298;2024-02-15T05:08:04;14.43;;;6.30;;
33826;SDS011;20128;45.582;5.298;2024-02-15T05:10:30;16.90;;;5.18;;
33826;SDS011;20128;45.582;5.298;2024-02-15T05:12:56;15.35;;;5.60;;
33826;SDS011;20128;45.582;5.298;2024-02-15T05:15:22;12.07;;;5.22;;
33826;SDS011;20128;45.582;5.298;2024-02-15T05:17:50;10.20;;;5.25;;
33826;SDS011;20128;45.582;5.298;2024-02-15T05:20:16;9.63;;;4.60;;
33826;SDS011;20128;45.582;5.298;2024-02-15T05:22:41;14.60;;;5.55;;
33826;SDS011;20128;45.582;5.298;2024-02-15T05:25:13;18.20;;;5.85;;
33826;SDS011;20128;45.582;5.298;2024-02-15T05:27:40;24.23;;;6.20;;
33826;SDS011;20128;45.582;5.298;2024-02-15T05:30:08;15.32;;;5.28;;
33826;SDS011;20128;45.582;5.298;2024-02-15T05:32:36;20.30;;;6.07;;
33826;SDS011;20128;45.582;5.298;2024-02-15T05:35:09;12.73;;;5.53;;
33826;SDS011;20128;45.582;5.298;2024-02-15T05:37:38;11.75;;;4.90;;
33826;SDS011;20128;45.582;5.298;2024-02-15T05:40:04;18.15;;;5.93;;
33826;SDS011;20128;45.582;5.298;2024-02-15T05:42:30;18.45;;;5.65;;
33826;SDS011;20128;45.582;5.298;2024-02-15T05:44:58;12.98;;;5.60;;
33826;SDS011;20128;45.582;5.298;2024-02-15T05:47:40;15.98;;;5.82;;
33826;SDS011;20128;45.582;5.298;2024-02-15T05:50:05;11.00;;;5.40;;
33826;SDS011;20128;45.582;5.298;2024-02-15T05:52:32;10.82;;;5.78;;
33826;SDS011;20128;45.582;5.298;2024-02-15T05:54:57;16.10;;;6.75;;
33826;SDS011;20128;45.582;5.298;2024-02-15T05:57:23;13.30;;;5.35;;
33826;SDS011;20128;45.582;5.298;2024-02-15T05:59:48;13.98;;;5.32;;
33826;SDS011;20128;45.582;5.298;2024-02-15T06:02:14;14.23;;;5.30;;
33826;SDS011;20128;45.582;5.298;2024-02-15T06:04:40;17.90;;;5.20;;
33826;SDS011;20128;45.582;5.298;2024-02-15T06:07:06;10.60;;;5.35;;
33826;SDS011;20128;45.582;5.298;2024-02-15T06:09:34;13.23;;;5.88;;
33826;SDS011;20128;45.582;5.298;2024-02-15T06:12:02;12.00;;;4.93;;
33826;SDS011;20128;45.582;5.298;2024-02-15T06:14:27;15.13;;;5.88;;
33826;SDS011;20128;45.582;5.298;2024-02-15T06:16:53;12.75;;;5.85;;
33826;SDS011;20128;45.582;5.298;2024-02-15T06:19:20;10.20;;;5.47;;
33826;SDS011;20128;45.582;5.298;2024-02-15T06:21:46;17.05;;;5.88;;
33826;SDS011;20128;45.582;5.298;2024-02-15T06:24:12;15.93;;;5.10;;
33826;SDS011;20128;45.582;5.298;2024-02-15T06:26:39;10.82;;;5.20;;
33826;SDS011;20128;45.582;5.298;2024-02-15T06:29:04;11.07;;;4.93;;
33826;SDS011;20128;45.582;5.298;2024-02-15T06:34:33;8.32;;;4.97;;
33826;SDS011;20128;45.582;5.298;2024-02-15T06:37:35;10.77;;;3.35;;
33826;SDS011;20128;45.582;5.298;2024-02-15T06:40:20;9.05;;;3.70;;
33826;SDS011;20128;45.582;5.298;2024-02-15T06:42:46;7.40;;;2.88;;
33826;SDS011;20128;45.582;5.298;2024-02-15T06:45:12;10.32;;;3.45;;
33826;SDS011;20128;45.582;5.298;2024-02-15T06:47:40;8.93;;;3.20;;
33826;SDS011;20128;45.582;5.298;2024-02-15T06:50:09;14.30;;;3.58;;
33826;SDS011;20128;45.582;5.298;2024-02-15T06:52:36;7.57;;;3.40;;
33826;SDS011;20128;45.582;5.298;2024-02-15T06:55:14;14.07;;;3.70;;
33826;SDS011;20128;45.582;5.298;2024-02-15T06:57:39;8.70;;;3.45;;
33826;SDS011;20128;45.582;5.298;2024-02-15T07:00:06;10.55;;;3.47;;
33826;SDS011;20128;45.582;5.298;2024-02-15T07:02:35;12.32;;;3.97;;
33826;SDS011;20128;45.582;5.298;2024-02-15T07:05:01;13.77;;;5.45;;
33826;SDS011;20128;45.582;5.298;2024-02-15T07:07:30;14.85;;;5.25;;
33826;SDS011;20128;45.582;5.298;2024-02-15T07:09:56;16.10;;;4.93;;
33826;SDS011;20128;45.582;5.298;2024-02-15T07:12:22;13.20;;;4.60;;
33826;SDS011;20128;45.582;5.298;2024-02-15T07:14:48;11.55;;;4.75;;
33826;SDS011;20128;45.582;5.298;2024-02-15T07:17:14;10.10;;;4.60;;
33826;SDS011;20128;45.582;5.298;2024-02-15T07:19:43;17.10;;;4.50;;
33826;SDS011;20128;45.582;5.298;2024-02-15T07:22:09;11.38;;;4.07;;
33826;SDS011;20128;45.582;5.298;2024-02-15T07:24:36;17.38;;;4.10;;
33826;SDS011;20128;45.582;5.298;2024-02-15T07:27:03;12.25;;;4.20;;
33826;SDS011;20128;45.582;5.298;2024-02-15T07:29:30;19.20;;;5.10;;
33826;SDS011;20128;45.582;5.298;2024-02-15T07:31:57;18.75;;;5.00;;
33826;SDS011;20128;45.582;5.298;2024-02-15T07:34:25;17.40;;;5.03;;
33826;SDS011;20128;45.582;5.298;2024-02-15T07:36:51;16.83;;;5.20;;
33826;SDS011;20128;45.582;5.298;2024-02-15T07:39:17;10.70;;;4.35;;
33826;SDS011;20128;45.582;5.298;2024-02-15T07:41:49;22.17;;;5.40;;
33826;SDS011;20128;45.582;5.298;2024-02-15T07:44:18;10.95;;;4.03;;
33826;SDS011;20128;45.582;5.298;2024-02-15T07:46:44;12.68;;;4.18;;
33826;SDS011;20128;45.582;5.298;2024-02-15T07:49:11;13.75;;;4.05;;
33826;SDS011;20128;45.582;5.298;2024-02-15T07:51:37;11.27;;;3.50;;
33826;SDS011;20128;45.582;5.298;2024-02-15T07:54:02;10.70;;;3.17;;
33826;SDS011;20128;45.582;5.298;2024-02-15T07:56:29;11.35;;;3.90;;
33826;SDS011;20128;45.582;5.298;2024-02-15T07:58:55;8.48;;;3.45;;
33826;SDS011;20128;45.582;5.298;2024-02-15T08:01:21;9.38;;;3.42;;
33826;SDS011;20128;45.582;5.298;2024-02-15T08:03:47;12.27;;;3.35;;
33826;SDS011;20128;45.582;5.298;2024-02-15T08:06:14;7.38;;;3.25;;
33826;SDS011;20128;45.582;5.298;2024-02-15T08:08:44;12.18;;;4.35;;
33826;SDS011;20128;45.582;5.298;2024-02-15T08:11:12;8.57;;;3.33;;
33826;SDS011;20128;45.582;5.298;2024-02-15T08:13:50;9.90;;;3.83;;
33826;SDS011;20128;45.582;5.298;2024-02-15T08:16:19;12.88;;;3.83;;
33826;SDS011;20128;45.582;5.298;2024-02-15T08:18:47;11.20;;;4.00;;
33826;SDS011;20128;45.582;5.298;2024-02-15T08:21:17;12.02;;;4.03;;
33826;SDS011;20128;45.582;5.298;2024-02-15T08:23:43;6.95;;;3.78;;
33826;SDS011;20128;45.582;5.298;2024-02-15T08:26:09;12.57;;;4.22;;
33826;SDS011;20128;45.582;5.298;2024-02-15T08:28:38;15.27;;;4.40;;
33826;SDS011;20128;45.582;5.298;2024-02-15T08:31:04;9.20;;;4.35;;
33826;SDS011;20128;45.582;5.298;2024-02-15T08:33:29;11.45;;;3.88;;
33826;SDS011;20128;45.582;5.298;2024-02-15T08:35:56;14.13;;;4.10;;
33826;SDS011;20128;45.582;5.298;2024-02-15T08:38:22;6.28;;;3.50;;
33826;SDS011;20128;45.582;5.298;2024-02-15T08:40:48;8.32;;;3.05;;
33826;SDS011;20128;45.582;5.298;2024-02-15T08:43:13;12.55;;;4.22;;
33826;SDS011;20128;45.582;5.298;2024-02-15T08:45:40;14.55;;;5.90;;
33826;SDS011;20128;45.582;5.298;2024-02-15T08:48:06;13.43;;;4.43;;
33826;SDS011;20128;45.582;5.298;2024-02-15T08:50:32;12.63;;;3.67;;
33826;SDS011;20128;45.582;5.298;2024-02-15T08:52:58;12.10;;;4.22;;
33826;SDS011;20128;45.582;5.298;2024-02-15T08:55:24;13.75;;;4.03;;
33826;SDS011;20128;45.582;5.298;2024-02-15T08:57:52;16.85;;;4.18;;
33826;SDS011;20128;45.582;5.298;2024-02-15T09:00:18;10.70;;;4.35;;
33826;SDS011;20128;45.582;5.298;2024-02-15T09:02:47;11.57;;;4.35;;
33826;SDS011;20128;45.582;5.298;2024-02-15T09:05:14;12.27;;;4.18;;
33826;SDS011;20128;45.582;5.298;2024-02-15T09:07:40;7.97;;;3.20;;
33826;SDS011;20128;45.582;5.298;2024-02-15T09:10:09;19.67;;;3.92;;
33826;SDS011;20128;45.582;5.298;2024-02-15T09:12:36;15.07;;;4.25;;
33826;SDS011;20128;45.582;5.298;2024-02-15T09:15:08;9.80;;;3.80;;
33826;SDS011;20128;45.582;5.298;2024-02-15T09:17:36;8.73;;;4.00;;
33826;SDS011;20128;45.582;5.298;2024-02-15T09:20:14;14.38;;;4.43;;
33826;SDS011;20128;45.582;5.298;2024-02-15T09:22:49;12.30;;;3.92;;
33826;SDS011;20128;45.582;5.298;2024-02-15T09:25:16;14.77;;;4.28;;
33826;SDS011;20128;45.582;5.298;2024-02-15T09:27:43;9.98;;;3.90;;
33826;SDS011;20128;45.582;5.298;2024-02-15T09:30:09;11.35;;;3.35;;
33826;SDS011;20128;45.582;5.298;2024-02-15T09:32:36;17.75;;;3.67;;
33826;SDS011;20128;45.582;5.298;2024-02-15T09:35:02;11.95;;;3.85;;
33826;SDS011;20128;45.582;5.298;2024-02-15T09:37:32;11.50;;;3.55;;
33826;SDS011;20128;45.582;5.298;2024-02-15T09:40:07;9.20;;;3.78;;
33826;SDS011;20128;45.582;5.298;2024-02-15T09:42:37;15.27;;;3.83;;
33826;SDS011;20128;45.582;5.298;2024-02-15T09:45:05;12.32;;;3.58;;
33826;SDS011;20128;45.582;5.298;2024-02-15T09:47:34;8.10;;;4.38;;
33826;SDS011;20128;45.582;5.298;2024-02-15T09:50:02;12.70;;;4.30;;
33826;SDS011;20128;45.582;5.298;2024-02-15T09:52:39;11.13;;;5.00;;
33826;SDS011;20128;45.582;5.298;2024-02-15T09:55:05;12.75;;;5.05;;
33826;SDS011;20128;45.582;5.298;2024-02-15T09:57:37;13.50;;;4.55;;
33826;SDS011;20128;45.582;5.298;2024-02-15T10:00:07;7.47;;;4.03;;
33826;SDS011;20128;45.582;5.298;2024-02-15T10:02:36;13.50;;;4.32;;
33826;SDS011;20128;45.582;5.298;2024-02-15T10:05:05;10.27;;;3.80;;
33826;SDS011;20128;45.582;5.298;2024-02-15T10:07:31;9.55;;;4.15;;
33826;SDS011;20128;45.582;5.298;2024-02-15T10:09:56;13.38;;;4.65;;
33826;SDS011;20128;45.582;5.298;2024-02-15T10:12:39;11.65;;;4.88;;
33826;SDS011;20128;45.582;5.298;2024-02-15T10:15:04;8.45;;;3.80;;
33826;SDS011;20128;45.582;5.298;2024-02-15T10:17:32;13.63;;;4.40;;
33826;SDS011;20128;45.582;5.298;2024-02-15T10:20:03;11.30;;;3.13;;
33826;SDS011;20128;45.582;5.298;2024-02-15T10:22:30;9.48;;;3.80;;
33826;SDS011;20128;45.582;5.298;2024-02-15T10:25:14;13.43;;;3.90;;
33826;SDS011;20128;45.582;5.298;2024-02-15T10:30:18;8.88;;;2.95;;
33826;SDS011;20128;45.582;5.298;2024-02-15T10:32:45;12.20;;;4.13;;
33826;SDS011;20128;45.582;5.298;2024-02-15T10:35:22;8.27;;;3.38;;
33826;SDS011;20128;45.582;5.298;2024-02-15T10:37:48;6.30;;;3.80;;
33826;SDS011;20128;45.582;5.298;2024-02-15T10:40:18;10.20;;;3.30;;
33826;SDS011;20128;45.582;5.298;2024-02-15T10:42:48;7.55;;;3.20;;
33826;SDS011;20128;45.582;5.298;2024-02-15T10:45:16;11.70;;;3.28;;
33826;SDS011;20128;45.582;5.298;2024-02-15T10:47:45;6.78;;;2.88;;
33826;SDS011;20128;45.582;5.298;2024-02-15T10:50:12;7.63;;;3.00;;
33826;SDS011;20128;45.582;5.298;2024-02-15T10:52:42;12.95;;;3.30;;
33826;SDS011;20128;45.582;5.298;2024-02-15T10:55:21;9.75;;;3.42;;
33826;SDS011;20128;45.582;5.298;2024-02-15T10:57:54;6.55;;;2.95;;
33826;SDS011;20128;45.582;5.298;2024-02-15T11:00:23;10.48;;;2.90;;
33826;SDS011;20128;45.582;5.298;2024-02-15T11:03:03;10.80;;;3.33;;
33826;SDS011;20128;45.582;5.298;2024-02-15T11:05:34;9.15;;;3.00;;
33826;SDS011;20128;45.582;5.298;2024-02-15T11:08:04;7.32;;;2.92;;
33826;SDS011;20128;45.582;5.298;2024-02-15T11:10:32;8.43;;;2.95;;
33826;SDS011;20128;45.582;5.298;2024-02-15T11:12:59;7.75;;;3.75;;
33826;SDS011;20128;45.582;5.298;2024-02-15T11:18:01;7.65;;;3.47;;
33826;SDS011;20128;45.582;5.298;2024-02-15T11:20:49;18.23;;;4.55;;
33826;SDS011;20128;45.582;5.298;2024-02-15T11:23:23;10.52;;;3.40;;
33826;SDS011;20128;45.582;5.298;2024-02-15T11:25:50;8.27;;;2.95;;
33826;SDS011;20128;45.582;5.298;2024-02-15T11:30:49;8.95;;;2.92;;
33826;SDS011;20128;45.582;5.298;2024-02-15T11:38:31;6.53;;;3.30;;
33826;SDS011;20128;45.582;5.298;2024-02-15T11:41:01;5.65;;;2.70;;
33826;SDS011;20128;45.582;5.298;2024-02-15T11:46:14;8.63;;;3.00;;
33826;SDS011;20128;45.582;5.298;2024-02-15T11:48:44;5.40;;;2.53;;
33826;SDS011;20128;45.582;5.298;2024-02-15T11:51:24;9.27;;;2.33;;
33826;SDS011;20128;45.582;5.298;2024-02-15T11:54:06;7.65;;;2.30;;
33826;SDS011;20128;45.582;5.298;2024-02-15T11:56:49;6.63;;;3.10;;
33826;SDS011;20128;45.582;5.298;2024-02-15T11:59:44;6.20;;;2.65;;
33826;SDS011;20128;45.582;5.298;2024-02-15T12:02:39;5.60;;;2.47;;
33826;SDS011;20128;45.582;5.298;2024-02-15T12:05:23;5.45;;;2.22;;
33826;SDS011;20128;45.582;5.298;2024-02-15T12:10:57;4.35;;;1.63;;
33826;SDS011;20128;45.582;5.298;2024-02-15T12:13:42;5.38;;;2.00;;
33826;SDS011;20128;45.582;5.298;2024-02-15T12:16:26;6.40;;;2.25;;
33826;SDS011;20128;45.582;5.298;2024-02-15T12:21:35;5.63;;;2.15;;
33826;SDS011;20128;45.582;5.298;2024-02-15T12:24:06;9.52;;;2.53;;
33826;SDS011;20128;45.582;5.298;2024-02-15T12:26:32;6.60;;;2.30;;
33826;SDS011;20128;45.582;5.298;2024-02-15T12:28:59;5.45;;;1.70;;
33826;SDS011;20128;45.582;5.298;2024-02-15T12:31:26;4.65;;;1.65;;
33826;SDS011;20128;45.582;5.298;2024-02-15T12:34:02;4.47;;;2.20;;
33826;SDS011;20128;45.582;5.298;2024-02-15T12:36:34;7.95;;;1.80;;
33826;SDS011;20128;45.582;5.298;2024-02-15T12:39:03;7.63;;;2.20;;
33826;SDS011;20128;45.582;5.298;2024-02-15T12:41:47;4.68;;;2.50;;
33826;SDS011;20128;45.582;5.298;2024-02-15T12:44:18;7.50;;;1.83;;
33826;SDS011;20128;45.582;5.298;2024-02-15T12:46:53;6.38;;;1.65;;
33826;SDS011;20128;45.582;5.298;2024-02-15T12:51:52;12.55;;;1.95;;
33826;SDS011;20128;45.582;5.298;2024-02-15T12:54:19;4.32;;;1.90;;
33826;SDS011;20128;45.582;5.298;2024-02-15T12:56:49;11.57;;;2.13;;
33826;SDS011;20128;45.582;5.298;2024-02-15T12:59:17;13.18;;;1.70;;
33826;SDS011;20128;45.582;5.298;2024-02-15T13:01:44;13.82;;;2.13;;
33826;SDS011;20128;45.582;5.298;2024-02-15T13:04:21;5.82;;;1.30;;
33826;SDS011;20128;45.582;5.298;2024-02-15T13:06:49;10.07;;;1.48;;
33826;SDS011;20128;45.582;5.298;2024-02-15T13:09:15;4.93;;;1.70;;
33826;SDS011;20128;45.582;5.298;2024-02-15T13:11:40;5.68;;;1.67;;
33826;SDS011;20128;45.582;5.298;2024-02-15T13:14:10;7.45;;;1.83;;
33826;SDS011;20128;45.582;5.298;2024-02-15T13:16:36;4.03;;;1.70;;
33826;SDS011;20128;45.582;5.298;2024-02-15T13:19:02;7.15;;;1.65;;
33826;SDS011;20128;45.582;5.298;2024-02-15T13:21:28;4.72;;;1.65;;
33826;SDS011;20128;45.582;5.298;2024-02-15T13:23:55;10.57;;;2.20;;
33826;SDS011;20128;45.582;5.298;2024-02-15T13:26:21;5.88;;;1.80;;
33826;SDS011;20128;45.582;5.298;2024-02-15T13:28:50;8.80;;;1.85;;
33826;SDS011;20128;45.582;5.298;2024-02-15T13:31:17;6.93;;;1.90;;
33826;SDS011;20128;45.582;5.298;2024-02-15T13:33:42;8.05;;;2.13;;
33826;SDS011;20128;45.582;5.298;2024-02-15T13:36:08;7.65;;;1.88;;
33826;SDS011;20128;45.582;5.298;2024-02-15T13:38:36;10.73;;;2.40;;
33826;SDS011;20128;45.582;5.298;2024-02-15T13:41:02;8.40;;;1.90;;
33826;SDS011;20128;45.582;5.298;2024-02-15T13:43:29;7.60;;;1.88;;
33826;SDS011;20128;45.582;5.298;2024-02-15T13:45:56;5.50;;;1.63;;
33826;SDS011;20128;45.582;5.298;2024-02-15T13:48:21;5.93;;;2.15;;
33826;SDS011;20128;45.582;5.298;2024-02-15T13:50:51;7.68;;;1.73;;
33826;SDS011;20128;45.582;5.298;2024-02-15T13:53:18;5.50;;;1.58;;
33826;SDS011;20128;45.582;5.298;2024-02-15T13:55:43;5.70;;;1.67;;
33826;SDS011;20128;45.582;5.298;2024-02-15T13:58:10;2.97;;;1.38;;
33826;SDS011;20128;45.582;5.298;2024-02-15T14:00:39;4.90;;;1.77;;
33826;SDS011;20128;45.582;5.298;2024-02-15T14:03:07;6.22;;;1.60;;
33826;SDS011;20128;45.582;5.298;2024-02-15T14:05:35;8.95;;;2.22;;
33826;SDS011;20128;45.582;5.298;2024-02-15T14:08:04;8.63;;;1.63;;
33826;SDS011;20128;45.582;5.298;2024-02-15T14:10:31;7.57;;;1.98;;
33826;SDS011;20128;45.582;5.298;2024-02-15T14:13:00;9.23;;;2.17;;
33826;SDS011;20128;45.582;5.298;2024-02-15T14:15:31;7.10;;;2.00;;
33826;SDS011;20128;45.582;5.298;2024-02-15T14:20:38;11.35;;;2.10;;
33826;SDS011;20128;45.582;5.298;2024-02-15T14:23:04;7.55;;;1.73;;
33826;SDS011;20128;45.582;5.298;2024-02-15T14:25:31;6.35;;;2.08;;
33826;SDS011;20128;45.582;5.298;2024-02-15T14:27:57;6.95;;;2.03;;
33826;SDS011;20128;45.582;5.298;2024-02-15T14:30:23;7.30;;;2.28;;
33826;SDS011;20128;45.582;5.298;2024-02-15T14:33:09;8.35;;;2.20;;
33826;SDS011;20128;45.582;5.298;2024-02-15T14:35:39;12.65;;;2.53;;
33826;SDS011;20128;45.582;5.298;2024-02-15T14:38:06;8.57;;;1.77;;
33826;SDS011;20128;45.582;5.298;2024-02-15T14:40:54;5.82;;;2.13;;
33826;SDS011;20128;45.582;5.298;2024-02-15T14:43:21;5.82;;;1.85;;
33826;SDS011;20128;45.582;5.298;2024-02-15T14:45:47;6.22;;;1.73;;
33826;SDS011;20128;45.582;5.298;2024-02-15T14:48:13;5.60;;;1.73;;
33826;SDS011;20128;45.582;5.298;2024-02-15T14:50:42;10.18;;;2.53;;
33826;SDS011;20128;45.582;5.298;2024-02-15T14:53:09;11.70;;;2.20;;
33826;SDS011;20128;45.582;5.298;2024-02-15T14:55:35;8.38;;;1.80;;
33826;SDS011;20128;45.582;5.298;2024-02-15T14:58:04;11.10;;;2.13;;
33826;SDS011;20128;45.582;5.298;2024-02-15T15:00:35;8.13;;;2.78;;
33826;SDS011;20128;45.582;5.298;2024-02-15T15:03:02;8.50;;;2.10;;
33826;SDS011;20128;45.582;5.298;2024-02-15T15:05:28;8.55;;;2.42;;
33826;SDS011;20128;45.582;5.298;2024-02-15T15:08:13;13.32;;;2.90;;
33826;SDS011;20128;45.582;5.298;2024-02-15T15:10:57;8.27;;;2.00;;
33826;SDS011;20128;45.582;5.298;2024-02-15T15:13:58;10.52;;;2.45;;
33826;SDS011;20128;45.582;5.298;2024-02-15T15:16:24;8.00;;;2.17;;